FW3644 Weather Reports


Display with metric or nautical units.
time (UTC)temp
F
wind
direction
speed
MPH
gust
MPH
rain 1hr
in
rain 24hr
in
rain mn
in
humidity
%
barometer
mb
20190420190521 82 171 15.0 22.0 0.00 0.00 0.00 24 1012.5
20190420190020 82 187 14.0 19.0 0.00 0.00 0.00 24 1012.6
20190420185517 82 162 14.0 20.0 0.00 0.00 0.00 24 1012.7
20190420185023 81 172 13.0 19.0 0.00 0.00 0.00 25 1012.8
20190420184517 81 154 10.0 14.0 0.00 0.00 0.00 25 1012.9
20190420184020 80 164 12.0 17.0 0.00 0.00 0.00 26 1013.0
20190420183521 80 164 11.0 15.0 0.00 0.00 0.00 26 1013.1
20190420183021 80 167 12.0 17.0 0.00 0.00 0.00 26 1013.3
20190420182517 79 194 13.0 16.0 0.00 0.00 0.00 26 1013.4
20190420182024 79 172 13.0 18.0 0.00 0.00 0.00 27 1013.5
20190420181517 79 173 12.0 16.0 0.00 0.00 0.00 28 1013.7
20190420181019 78 183 13.0 17.0 0.00 0.00 0.00 28 1013.9
20190420180521 78 174 13.0 17.0 0.00 0.00 0.00 28 1013.9
20190420180020 78 167 11.0 16.0 0.00 0.00 0.00 28 1014.0
20190420175517 78 179 13.0 18.0 0.00 0.00 0.00 28 1014.3
20190420175023 78 184 14.0 18.0 0.00 0.00 0.00 29 1014.3
20190420174517 77 169 13.0 18.0 0.00 0.00 0.00 30 1014.3
20190420174020 77 173 12.0 16.0 0.00 0.00 0.00 30 1014.4
20190420173520 77 175 12.0 16.0 0.00 0.00 0.00 29 1014.5
20190420173019 77 191 12.0 17.0 0.00 0.00 0.00 29 1014.6
20190420172518 77 167 12.0 16.0 0.00 0.00 0.00 30 1014.6
20190420172024 77 162 12.0 16.0 0.00 0.00 0.00 30 1014.8
20190420171517 76 192 12.0 16.0 0.00 0.00 0.00 30 1014.8
20190420171020 76 189 11.0 15.0 0.00 0.00 0.00 30 1014.9
20190420170521 75 179 12.0 16.0 0.00 0.00 0.00 31 1015.0
20190420170020 75 181 12.0 15.0 0.00 0.00 0.00 31 1015.1
20190420165517 74 181 13.0 18.0 0.00 0.00 0.00 32 1015.2
20190420165024 74 196 12.0 17.0 0.00 0.00 0.00 32 1015.2
20190420164517 74 180 12.0 16.0 0.00 0.00 0.00 33 1015.2
20190420164020 73 183 10.0 13.0 0.00 0.00 0.00 34 1015.4
20190420163521 73 204 11.0 14.0 0.00 0.00 0.00 34 1015.3
20190420163021 72 179 11.0 14.0 0.00 0.00 0.00 35 1015.5
20190420162517 71 171 10.0 14.0 0.00 0.00 0.00 35 1015.5
20190420162023 71 197 12.0 17.0 0.00 0.00 0.00 35 1015.5
20190420161518 70 183 12.0 16.0 0.00 0.00 0.00 36 1015.7
20190420161019 70 201 11.0 15.0 0.00 0.00 0.00 37 1015.6
20190420160521 69 196 11.0 14.0 0.00 0.00 0.00 38 1015.7
20190420160020 69 173 11.0 14.0 0.00 0.00 0.00 38 1015.8
20190420155024 68 189 9.0 12.0 0.00 0.00 0.00 40 1015.9
20190420154518 67 196 10.0 13.0 0.00 0.00 0.00 40 1015.9
20190420154020 67 183 10.0 14.0 0.00 0.00 0.00 41 1015.9
20190420153521 66 194 10.0 13.0 0.00 0.00 0.00 41 1016.0
20190420153020 66 184 11.0 14.0 0.00 0.00 0.00 42 1016.1
20190420152518 65 198 10.0 13.0 0.00 0.00 0.00 43 1016.0
20190420152024 65 204 10.0 12.0 0.00 0.00 0.00 44 1016.1
20190420151517 64 191 9.0 13.0 0.00 0.00 0.00 46 1016.1
20190420151019 64 183 9.0 11.0 0.00 0.00 0.00 47 1016.2
20190420150521 63 176 7.0 10.0 0.00 0.00 0.00 48 1016.3
20190420150021 62 180 8.0 11.0 0.00 0.00 0.00 49 1016.2
20190420145517 62 166 8.0 10.0 0.00 0.00 0.00 50 1016.3
20190420145024 61 181 9.0 11.0 0.00 0.00 0.00 50 1016.5
20190420144517 60 185 9.0 12.0 0.00 0.00 0.00 51 1016.5
20190420144020 60 202 9.0 11.0 0.00 0.00 0.00 51 1016.5
20190420143521 59 200 9.0 12.0 0.00 0.00 0.00 53 1016.5
20190420143020 58 190 9.0 11.0 0.00 0.00 0.00 53 1016.5
20190420142518 57 194 9.0 12.0 0.00 0.00 0.00 54 1016.5
20190420142023 57 194 10.0 13.0 0.00 0.00 0.00 57 1016.7
20190420141517 56 202 9.0 11.0 0.00 0.00 0.00 59 1016.6
20190420141020 55 175 8.0 10.0 0.00 0.00 0.00 60 1016.7
20190420140522 54 190 6.0 8.0 0.00 0.00 0.00 60 1016.6
20190420140020 54 166 6.0 9.0 0.00 0.00 0.00 60 1016.6
20190420135517 53 183 7.0 10.0 0.00 0.00 0.00 61 1016.5
20190420135023 53 169 7.0 9.0 0.00 0.00 0.00 61 1016.5
20190420134517 52 173 8.0 10.0 0.00 0.00 0.00 62 1016.6
20190420134020 52 176 8.0 11.0 0.00 0.00 0.00 63 1016.6
20190420133521 51 177 7.0 9.0 0.00 0.00 0.00 63 1016.6
20190420133021 50 184 8.0 10.0 0.00 0.00 0.00 65 1016.7
20190420132517 49 174 6.0 9.0 0.00 0.00 0.00 67 1016.5
20190420132024 48 162 5.0 7.0 0.00 0.00 0.00 69 1016.5
20190420131516 47 164 5.0 6.0 0.00 0.00 0.00 70 1016.5
20190420131020 46 161 5.0 6.0 0.00 0.00 0.00 71 1016.4
20190420130521 46 158 5.0 7.0 0.00 0.00 0.00 72 1016.3
20190420130021 45 156 5.0 7.0 0.00 0.00 0.00 73 1016.3
20190420125517 44 159 6.0 7.0 0.00 0.00 0.00 75 1016.2
20190420125023 43 151 3.0 5.0 0.00 0.00 0.00 76 1016.1
20190420124517 42 157 3.0 5.0 0.00 0.00 0.00 77 1016.1
20190420124019 42 157 3.0 4.0 0.00 0.00 0.00 77 1016.1
20190420123521 41 148 3.0 5.0 0.00 0.00 0.00 78 1016.0
20190420123019 41 150 3.0 5.0 0.00 0.00 0.00 78 1016.0
20190420122517 41 141 3.0 4.0 0.00 0.00 0.00 77 1016.0
20190420122024 40 136 4.0 5.0 0.00 0.00 0.00 77 1016.0
20190420121518 40 138 3.0 5.0 0.00 0.00 0.00 76 1016.0
20190420121020 40 141 3.0 5.0 0.00 0.00 0.00 75 1016.1
20190420120521 40 149 4.0 5.0 0.00 0.00 0.00 75 1016.1
20190420120021 41 147 2.0 3.0 0.00 0.00 0.00 74 1016.2
20190420115516 41 161 2.0 3.0 0.00 0.00 0.00 74 1016.2
20190420115024 41 167 2.0 3.0 0.00 0.00 0.00 73 1016.2
20190420114518 41 156 3.0 4.0 0.00 0.00 0.00 73 1016.2
20190420114019 42 160 3.0 5.0 0.00 0.00 0.00 73 1016.2
20190420113520 42 159 3.0 5.0 0.00 0.00 0.00 74 1016.1
20190420113020 41 156 3.0 5.0 0.00 0.00 0.00 74 1016.2
20190420112517 41 156 3.0 5.0 0.00 0.00 0.00 75 1016.2
20190420112023 40 167 3.0 4.0 0.00 0.00 0.00 75 1016.2
20190420111517 40 170 3.0 4.0 0.00 0.00 0.00 75 1016.2
20190420111019 40 176 2.0 4.0 0.00 0.00 0.00 75 1016.1
20190420110520 39 176 2.0 4.0 0.00 0.00 0.00 75 1016.2
20190420110020 39 163 2.0 3.0 0.00 0.00 0.00 74 1016.2
20190420105516 39 169 2.0 3.0 0.00 0.00 0.00 74 1016.2
20190420105024 39 180 3.0 3.0 0.00 0.00 0.00 74 1016.2
20190420104517 40 175 2.0 3.0 0.00 0.00 0.00 73 1016.3
20190420104019 40 180 2.0 3.0 0.00 0.00 0.00 73 1016.3
20190420103521 40 157 2.0 3.0 0.00 0.00 0.00 73 1016.5
20190420103019 40 180 3.0 4.0 0.00 0.00 0.00 73 1016.5
20190420102517 40 199 3.0 4.0 0.00 0.00 0.00 73 1016.6
20190420102023 40 179 3.0 4.0 0.00 0.00 0.00 73 1016.6
20190420101517 40 180 3.0 4.0 0.00 0.00 0.00 73 1016.6
20190420101020 40 180 2.0 3.0 0.00 0.00 0.00 73 1016.6
20190420100521 40 180 3.0 3.0 0.00 0.00 0.00 72 1016.6
20190420100020 40 180 2.0 3.0 0.00 0.00 0.00 72 1016.7
20190420095517 40 173 2.0 3.0 0.00 0.00 0.00 72 1016.7
20190420095023 40 180 2.0 3.0 0.00 0.00 0.00 71 1016.8
20190420094517 41 180 1.0 2.0 0.00 0.00 0.00 71 1016.8
20190420094019 40 180 2.0 3.0 0.00 0.00 0.00 72 1016.9
20190420093521 40 157 2.0 3.0 0.00 0.00 0.00 71 1016.9
20190420093020 40 180 1.0 2.0 0.00 0.00 0.00 71 1017.0
20190420092517 41 180 2.0 2.0 0.00 0.00 0.00 70 1016.9
20190420092023 41 169 2.0 3.0 0.00 0.00 0.00 70 1016.9
20190420091517 41 157 2.0 3.0 0.00 0.00 0.00 70 1017.1
20190420091020 41 157 0.0 1.0 0.00 0.00 0.00 70 1017.0
20190420090522 41 157 2.0 3.0 0.00 0.00 0.00 70 1017.1
20190420090020 40 157 0.0 1.0 0.00 0.00 0.00 71 1017.1
20190420085516 40 157 0.0 1.0 0.00 0.00 0.00 71 1017.2
20190420085023 39 157 0.0 1.0 0.00 0.00 0.00 72 1017.3
20190420084516 39 180 2.0 2.0 0.00 0.00 0.00 72 1017.4
20190420084019 40 180 0.0 0.0 0.00 0.00 0.00 72 1017.4
20190420083520 40 180 0.0 1.0 0.00 0.00 0.00 72 1017.4
20190420083020 40 180 1.0 1.0 0.00 0.00 0.00 72 1017.4
20190420082516 40 180 1.0 2.0 0.00 0.00 0.00 72 1017.4
20190420082023 40 180 0.0 1.0 0.00 0.00 0.00 72 1017.5
20190420081518 40 180 1.0 1.0 0.00 0.00 0.00 72 1017.4
20190420081019 40 180 0.0 0.0 0.00 0.00 0.00 71 1017.5
20190420080521 40 180 0.0 1.0 0.00 0.00 0.00 71 1017.6
20190420080020 40 180 0.0 1.0 0.00 0.00 0.00 70 1017.7
20190420075517 41 180 1.0 2.0 0.00 0.00 0.00 69 1017.8
20190420075023 41 180 1.0 2.0 0.00 0.00 0.00 69 1017.8
20190420074517 41 180 0.0 1.0 0.00 0.00 0.00 69 1017.9
20190420074018 41 180 2.0 2.0 0.00 0.00 0.00 69 1017.9
20190420073520 41 157 1.0 2.0 0.00 0.00 0.00 70 1017.9
20190420073019 40 135 1.0 2.0 0.00 0.00 0.00 70 1018.0
20190420072517 40 164 0.0 0.0 0.00 0.00 0.00 70 1018.1
20190420072023 40 180 0.0 0.0 0.00 0.00 0.00 70 1018.1
20190420071517 40 180 1.0 1.0 0.00 0.00 0.00 70 1018.2
20190420071019 40 180 1.0 2.0 0.00 0.00 0.00 70 1018.3
20190420070521 40 202 0.0 1.0 0.00 0.00 0.00 69 1018.3
20190420070019 40 202 1.0 1.0 0.00 0.00 0.00 68 1018.4
20190420065517 40 202 0.0 1.0 0.00 0.00 0.00 68 1018.5
20190420065024 41 202 1.0 2.0 0.00 0.00 0.00 68 1018.6
20190420064517 41 202 2.0 3.0 0.00 0.00 0.00 67 1018.7
20190420064019 42 202 1.0 2.0 0.00 0.00 0.00 66 1018.8
20190420063521 42 202 2.0 3.0 0.00 0.00 0.00 64 1018.8
20190420063021 43 161 2.0 2.0 0.00 0.00 0.00 64 1018.8
20190420062517 42 157 2.0 2.0 0.00 0.00 0.00 64 1018.7
20190420062023 42 157 1.0 2.0 0.00 0.00 0.00 64 1018.8
20190420061518 43 180 1.0 2.0 0.00 0.00 0.00 63 1018.9
20190420061019 43 180 2.0 3.0 0.00 0.00 0.00 61 1018.8
20190420060520 44 180 3.0 4.0 0.00 0.00 0.00 61 1018.9
20190420060020 44 157 3.0 4.0 0.00 0.00 0.00 61 1018.8
20190420055517 44 180 3.0 5.0 0.00 0.00 0.00 61 1018.8
20190420055024 44 161 2.0 4.0 0.00 0.00 0.00 60 1018.5
20190420054517 44 158 2.0 3.0 0.00 0.00 0.00 60 1018.5
20190420054018 44 136 2.0 3.0 0.00 0.00 0.00 59 1018.7
20190420053521 45 165 3.0 5.0 0.00 0.00 0.00 59 1018.7
20190420053020 45 164 2.0 3.0 0.00 0.00 0.00 59 1018.8
20190420052518 45 176 2.0 3.0 0.00 0.00 0.00 58 1018.9
20190420052024 45 161 3.0 4.0 0.00 0.00 0.00 58 1018.9
20190420051517 45 157 3.0 4.0 0.00 0.00 0.00 57 1018.9
20190420051019 46 163 3.0 4.0 0.00 0.00 0.00 57 1018.9
20190420050522 46 173 3.0 4.0 0.00 0.00 0.00 56 1019.0
20190420050024 46 154 3.0 4.0 0.00 0.00 0.00 56 1019.0
20190420045516 47 157 3.0 4.0 0.00 0.00 0.00 54 1019.0
20190420045023 47 156 3.0 5.0 0.00 0.00 0.00 53 1019.0
20190420044518 48 151 3.0 5.0 0.00 0.00 0.00 52 1019.0
20190420044019 48 143 3.0 5.0 0.00 0.00 0.00 51 1019.1
20190420043521 48 116 4.0 6.0 0.00 0.00 0.00 50 1019.1
20190420043021 49 151 4.0 5.0 0.00 0.00 0.00 49 1019.2
20190420042517 49 138 4.0 6.0 0.00 0.00 0.00 49 1019.3
20190420042024 49 162 4.0 5.0 0.00 0.00 0.00 49 1019.3
20190420041517 49 164 4.0 5.0 0.00 0.00 0.00 49 1019.3
20190420041020 50 155 3.0 4.0 0.00 0.00 0.00 49 1019.2
20190420040534 50 143 4.0 5.0 0.00 0.00 0.00 48 1019.3
20190420040015 50 153 4.0 5.0 0.00 0.00 0.00 47 1019.0
20190420035517 51 128 3.0 5.0 0.00 0.00 0.00 47 1019.1
20190420035025 51 112 4.0 6.0 0.00 0.00 0.00 47 1019.0
20190420034517 50 116 3.0 5.0 0.00 0.00 0.00 48 1019.1
20190420034020 50 134 2.0 3.0 0.00 0.00 0.00 47 1019.2
20190420033522 51 150 1.0 2.0 0.00 0.00 0.00 46 1019.2
20190420033022 52 117 1.0 3.0 0.00 0.00 0.00 45 1019.3
20190420032518 52 142 2.0 4.0 0.00 0.00 0.00 44 1019.2
20190420032024 53 144 4.0 6.0 0.00 0.00 0.00 43 1019.2
20190420031518 54 116 6.0 7.0 0.00 0.00 0.00 43 1019.1
20190420031020 54 114 4.0 6.0 0.00 0.00 0.00 44 1019.0
20190420030522 53 112 3.0 4.0 0.00 0.00 0.00 44 1019.1
20190420030021 52 109 3.0 5.0 0.00 0.00 0.00 46 1019.0
20190420025518 52 111 4.0 5.0 0.00 0.00 0.00 47 1019.0
20190420025025 52 112 2.0 4.0 0.00 0.00 0.00 46 1019.0
20190420024517 53 144 2.0 3.0 0.00 0.00 0.00 43 1019.0
20190420024021 55 191 3.0 4.0 0.00 0.00 0.00 41 1019.0
20190420023521 56 112 4.0 5.0 0.00 0.00 0.00 40 1019.0
20190420023021 56 112 4.0 6.0 0.00 0.00 0.00 40 1018.9
20190420022517 55 116 4.0 6.0 0.00 0.00 0.00 41 1018.9
20190420022025 56 110 3.0 5.0 0.00 0.00 0.00 39 1019.0
20190420021517 57 143 2.0 3.0 0.00 0.00 0.00 38 1019.0
20190420021020 58 135 3.0 4.0 0.00 0.00 0.00 36 1018.9
20190420020521 59 112 3.0 4.0 0.00 0.00 0.00 36 1018.9
20190420020021 59 119 3.0 4.0 0.00 0.00 0.00 37 1018.8
20190420015518 59 112 4.0 5.0 0.00 0.00 0.00 37 1018.9
20190420015023 58 112 3.0 4.0 0.00 0.00 0.00 37 1018.9
20190420014518 59 135 1.0 2.0 0.00 0.00 0.00 37 1019.0
20190420014020 60 157 1.0 1.0 0.00 0.00 0.00 36 1018.9
20190420013522 61 157 1.0 2.0 0.00 0.00 0.00 35 1018.9
20190420013021 62 157 1.0 2.0 0.00 0.00 0.00 33 1019.0
20190420012517 63 157 1.0 2.0 0.00 0.00 0.00 32 1018.9
20190420012023 64 112 1.0 2.0 0.00 0.00 0.00 31 1018.8
20190420011518 65 90 1.0 1.0 0.00 0.00 0.00 28 1018.8
20190420011021 66 315 0.0 0.0 0.00 0.00 0.00 26 1018.9
20190420010522 67 315 0.0 0.0 0.00 0.00 0.00 25 1018.9
20190420010021 68 315 0.0 0.0 0.00 0.00 0.00 25 1018.9
20190420005517 69 315 0.0 0.0 0.00 0.00 0.00 25 1018.9
20190420005025 69 318 0.0 1.0 0.00 0.00 0.00 25 1019.0
20190420004517 69 22 2.0 2.0 0.00 0.00 0.00 25 1019.0
20190420004021 69 359 2.0 3.0 0.00 0.00 0.00 25 1019.0
20190420003522 69 315 2.0 3.0 0.00 0.00 0.00 25 1019.0
20190420003022 69 292 2.0 2.0 0.00 0.00 0.00 25 1019.1
20190420002517 69 292 1.0 2.0 0.00 0.00 0.00 24 1019.2
20190420002025 69 292 3.0 5.0 0.00 0.00 0.00 24 1019.2
20190420001517 70 294 3.0 4.0 0.00 0.00 0.00 24 1019.3
20190420001021 70 292 2.0 4.0 0.00 0.00 0.00 24 1019.4
20190420000521 69 307 3.0 5.0 0.00 0.00 0.00 24 1019.4
20190420000020 69 293 4.0 6.0 0.00 0.00 0.00 24 1019.5
20190419235517 69 341 5.0 7.0 0.00 0.00 0.00 24 1019.5
20190419235025 70 292 5.0 7.0 0.00 0.00 0.00 24 1019.6
20190419234517 69 337 7.0 9.0 0.00 0.00 0.00 24 1019.5
20190419234020 69 347 6.0 9.0 0.00 0.00 0.00 24 1019.5
20190419233521 70 329 5.0 7.0 0.00 0.00 0.00 24 1019.6
20190419233021 70 316 6.0 8.0 0.00 0.00 0.00 24 1019.5
20190419232518 69 321 5.0 8.0 0.00 0.00 0.00 24 1019.6
20190419232025 69 342 5.0 9.0 0.00 0.00 0.00 24 1019.7
20190419231518 69 262 6.0 9.0 0.00 0.00 0.00 24 1019.7
20190419231019 69 285 7.0 9.0 0.00 0.00 0.00 24 1019.8
20190419230521 68 299 8.0 11.0 0.00 0.00 0.00 24 1019.7
20190419230020 68 302 7.0 10.0 0.00 0.00 0.00 24 1019.8
20190419225517 68 314 7.0 9.0 0.00 0.00 0.00 23 1019.8
20190419225024 69 299 9.0 13.0 0.00 0.00 0.00 23 1019.9
20190419224517 69 309 6.0 8.0 0.00 0.00 0.00 23 1020.0
20190419224020 69 336 9.0 13.0 0.00 0.00 0.00 23 1020.0
20190419223522 68 313 5.0 8.0 0.00 0.00 0.00 23 1020.1
20190419223020 68 340 3.0 5.0 0.00 0.00 0.00 23 1020.1
20190419222517 68 318 6.0 9.0 0.00 0.00 0.00 23 1020.1
20190419222024 69 304 7.0 10.0 0.00 0.00 0.00 23 1020.2
20190419221517 68 318 2.0 5.0 0.00 0.00 0.00 23 1020.3
20190419221020 67 359 6.0 8.0 0.00 0.00 0.00 23 1020.3
20190419220521 67 261 8.0 11.0 0.00 0.00 0.00 23 1020.4
20190419220021 67 321 5.0 8.0 0.00 0.00 0.00 23 1020.4
20190419215518 68 293 7.0 10.0 0.00 0.00 0.00 23 1020.5
20190419215023 68 267 5.0 8.0 0.00 0.00 0.00 23 1020.5
20190419214518 67 351 5.0 8.0 0.00 0.00 0.00 23 1020.6
20190419214020 67 321 8.0 12.0 0.00 0.00 0.00 23 1020.7
20190419213522 66 302 5.0 8.0 0.00 0.00 0.00 24 1020.7
20190419213021 66 312 5.0 7.0 0.00 0.00 0.00 24 1020.8
20190419212518 66 286 5.0 8.0 0.00 0.00 0.00 23 1021.0
20190419212023 67 334 7.0 10.0 0.00 0.00 0.00 23 1021.0
20190419211517 67 323 5.0 7.0 0.00 0.00 0.00 23 1021.1
20190419211020 67 323 6.0 9.0 0.00 0.00 0.00 23 1021.3
20190419210521 67 291 8.0 13.0 0.00 0.00 0.00 23 1021.3
20190419210020 67 308 7.0 11.0 0.00 0.10 0.00 24 1021.2
20190419205518 67 278 6.0 8.0 0.00 0.10 0.00 24 1021.4
20190419205025 67 334 8.0 11.0 0.00 0.10 0.00 24 1021.4
20190419204519 66 348 8.0 13.0 0.00 0.10 0.00 24 1021.6
20190419204020 65 22 4.0 8.0 0.00 0.10 0.00 25 1021.6
20190419203523 66 326 7.0 11.0 0.00 0.10 0.00 24 1021.8
20190419203021 65 358 10.0 13.0 0.00 0.10 0.00 24 1021.9
20190419202518 65 332 6.0 10.0 0.00 0.10 0.00 25 1022.0
20190419202023 65 356 4.0 7.0 0.00 0.10 0.00 25 1022.1
20190419201517 65 297 6.0 9.0 0.00 0.10 0.00 25 1022.2
20190419201019 64 310 8.0 11.0 0.00 0.10 0.00 25 1022.3
20190419200522 64 316 9.0 14.0 0.00 0.10 0.00 26 1022.3
20190419200021 64 315 6.0 10.0 0.00 0.10 0.00 26 1022.5
20190419195518 64 313 10.0 15.0 0.00 0.10 0.00 26 1022.5
20190419195023 64 338 9.0 13.0 0.00 0.10 0.00 26 1022.6
20190419194518 63 282 8.0 11.0 0.00 0.10 0.00 26 1022.7
20190419194021 64 296 6.0 10.0 0.00 0.10 0.00 26 1022.8
20190419193521 63 339 8.0 13.0 0.00 0.10 0.00 26 1022.8
20190419193021 64 359 4.0 6.0 0.00 0.10 0.00 26 1022.8
20190419192518 63 5 7.0 12.0 0.00 0.10 0.00 27 1022.8
20190419192023 62 327 5.0 7.0 0.00 0.10 0.00 27 1022.9
20190419191517 63 328 6.0 9.0 0.00 0.10 0.00 27 1023.1
20190419191020 63 333 8.0 11.0 0.00 0.10 0.00 27 1023.2